Time;durP1;ratioP1;P1;durP2;ratioP2;P2;SDS_P1;SDS_P2;PMS_P1;PMS_P2;Temp;Humidity;BMP_temperature;BMP_pressure;BME280_temperature;BME280_humidity;BME280_pressure;Samples;Min_cycle;Max_cycle;Signal;HPM_P1;HPM_P2
2022/07/13 00:02:08;;;;;;;;;3.00;2.00;;;;;19.15;49.40;99961.81;6287338;20;2744105;-58
2022/07/13 00:04:36;;;;;;;;;6.00;3.00;;;;;19.17;49.08;99970.69;6289018;20;2741962;-58
2022/07/13 00:07:04;;;;;;;;;5.00;2.00;;;;;19.13;49.61;99963.81;6284046;20;2741914;-59
2022/07/13 00:09:35;;;;;;;;;2.00;2.00;;;;;19.02;49.38;99962.94;6284027;20;2740046;-58
2022/07/13 00:12:03;;;;;;;;;2.00;2.00;;;;;18.87;50.17;99961.63;6289745;20;2741990;-58
2022/07/13 00:14:31;;;;;;;;;2.00;2.00;;;;;18.76;50.84;99956.34;6277423;20;2752415;-58
2022/07/13 00:17:23;;;;;;;;;2.00;2.00;;;;;18.75;51.03;99954.63;6284061;20;2754454;-58
2022/07/13 00:19:59;;;;;;;;;2.00;2.00;;;;;18.68;51.10;99953.41;6288009;20;2744048;-58
2022/07/13 00:22:26;;;;;;;;;1.00;1.00;;;;;18.49;51.28;99960.53;6288505;20;2735662;-58
2022/07/13 00:24:54;;;;;;;;;2.00;2.00;;;;;18.38;52.16;99941.63;6284775;20;2744007;-58
2022/07/13 00:27:22;;;;;;;;;2.00;2.00;;;;;18.34;52.61;99945.59;6285398;20;2744036;-59
2022/07/13 00:29:49;;;;;;;;;2.00;2.00;;;;;17.92;53.69;99942.97;6287148;20;2741910;-59
2022/07/13 00:32:17;;;;;;;;;2.00;2.00;;;;;17.75;54.93;99939.00;6287032;20;2746158;-58
2022/07/13 00:34:45;;;;;;;;;1.00;1.00;;;;;17.94;53.85;99943.72;6281577;20;2731520;-58
2022/07/13 00:37:13;;;;;;;;;3.00;2.00;;;;;17.90;53.79;99936.81;6281650;20;2744103;-58
2022/07/13 00:39:42;;;;;;;;;3.00;1.75;;;;;17.96;53.55;99939.03;6300264;20;1809688;-59
2022/07/13 00:42:09;;;;;;;;;2.00;2.00;;;;;18.15;52.98;99941.81;6317370;20;2742347;-58
2022/07/13 00:44:37;;;;;;;;;2.00;2.00;;;;;18.11;53.31;99936.78;6287816;20;2748931;-58
2022/07/13 00:47:05;;;;;;;;;3.00;2.50;;;;;18.23;52.40;99943.84;6282520;20;2744121;-58
2022/07/13 00:49:33;;;;;;;;;1.00;1.00;;;;;18.28;52.30;99940.72;6285729;20;2736843;-58
2022/07/13 00:52:01;;;;;;;;;2.00;2.00;;;;;18.09;53.38;99934.22;6286097;20;2744058;-58
2022/07/13 00:54:30;;;;;;;;;2.00;0.50;;;;;18.07;53.42;99928.03;6284984;20;2744135;-58
2022/07/13 00:57:03;;;;;;;;;2.50;1.00;;;;;17.93;53.86;99929.28;6281379;20;2742039;-59
2022/07/13 00:59:31;;;;;;;;;2.00;2.00;;;;;17.81;54.32;99927.63;6286772;20;2729444;-58
2022/07/13 01:01:58;;;;;;;;;2.00;2.00;;;;;17.91;53.78;99919.53;6281361;20;2737837;-59
2022/07/13 01:04:26;;;;;;;;;2.00;2.00;;;;;17.75;54.45;99914.56;6285789;20;2744030;-59
2022/07/13 01:06:55;;;;;;;;;1.00;1.00;;;;;17.71;54.88;99913.97;6282090;20;2744041;-58
2022/07/13 01:09:23;;;;;;;;;2.00;2.00;;;;;17.71;54.82;99919.41;6285882;20;2728440;-59
2022/07/13 01:11:53;;;;;;;;;2.50;2.50;;;;;17.74;54.75;99921.84;6284657;20;2726317;-59
2022/07/13 01:14:21;;;;;;;;;3.00;2.00;;;;;17.62;54.81;99916.66;6284924;20;2740903;-59
2022/07/13 01:16:49;;;;;;;;;2.00;2.00;;;;;17.65;54.75;99914.50;6282020;20;2747130;-58
2022/07/13 01:19:17;;;;;;;;;4.00;3.00;;;;;17.88;54.25;99912.53;6284547;20;2739996;-59
2022/07/13 01:21:48;;;;;;;;;2.00;2.00;;;;;17.62;54.93;99912.06;6276741;20;2746210;-58
2022/07/13 01:24:16;;;;;;;;;2.00;2.00;;;;;17.60;54.94;99902.34;6285595;20;2741941;-58
2022/07/13 01:26:44;;;;;;;;;4.00;2.00;;;;;17.44;56.05;99908.25;6280768;20;2735825;-58
2022/07/13 01:29:12;;;;;;;;;2.00;2.00;;;;;17.63;54.72;99904.78;6281442;20;2744091;-59
2022/07/13 01:31:41;;;;;;;;;3.00;3.00;;;;;17.65;55.11;99900.94;6282030;20;2752337;-59
2022/07/13 01:34:10;;;;;;;;;1.00;1.00;;;;;17.61;55.49;99901.31;6295125;20;1798296;-59
2022/07/13 01:36:38;;;;;;;;;3.00;3.00;;;;;17.60;55.31;99892.31;6313494;20;2748155;-59
2022/07/13 01:39:06;;;;;;;;;3.00;3.00;;;;;17.43;55.92;99906.50;6284861;20;2744306;-59
2022/07/13 01:41:34;;;;;;;;;3.00;3.00;;;;;17.31;55.98;99898.44;6285736;20;2728439;-58
2022/07/13 01:44:02;;;;;;;;;3.00;3.00;;;;;17.29;57.12;99894.97;6284170;20;2753467;-58
2022/07/13 01:46:30;;;;;;;;;3.00;3.00;;;;;17.37;55.64;99904.31;6284090;20;2729425;-59
2022/07/13 01:48:58;;;;;;;;;2.00;2.00;;;;;17.38;56.07;99903.31;6285142;20;2743998;-58
2022/07/13 01:51:27;;;;;;;;;3.00;3.00;;;;;17.41;55.44;99901.22;6283397;20;2742128;-59
2022/07/13 01:53:56;;;;;;;;;4.00;2.00;;;;;17.29;56.90;99894.97;6285520;20;2737752;-59
2022/07/13 01:56:24;;;;;;;;;3.00;3.00;;;;;17.22;56.52;99891.09;6285025;20;2733692;-59
2022/07/13 01:58:51;;;;;;;;;2.00;2.00;;;;;17.27;56.52;99891.56;6282017;20;2748205;-59
2022/07/13 02:01:19;;;;;;;;;3.00;3.00;;;;;17.13;56.83;99885.59;6285283;20;2731610;-59
2022/07/13 02:03:47;;;;;;;;;1.00;1.00;;;;;17.17;56.49;99882.50;6278743;20;2735676;-59
2022/07/13 02:06:15;;;;;;;;;3.00;3.00;;;;;17.27;56.41;99882.53;6282351;20;2729453;-59
2022/07/13 02:08:43;;;;;;;;;4.00;2.50;;;;;17.02;57.80;99875.66;6282009;20;2735716;-58
2022/07/13 02:11:20;;;;;;;;;2.00;2.00;;;;;16.94;58.05;99876.31;6281862;20;2740258;-59
2022/07/13 02:13:48;;;;;;;;;2.00;2.00;;;;;17.09;56.93;99883.16;6279913;20;2744065;-58
2022/07/13 02:16:17;;;;;;;;;3.00;3.00;;;;;17.01;57.09;99882.06;6281129;20;2741926;-59
2022/07/13 02:18:45;;;;;;;;;2.00;2.00;;;;;16.82;57.89;99878.19;6284374;20;2731541;-59
2022/07/13 02:21:13;;;;;;;;;3.00;3.00;;;;;16.84;58.34;99876.22;6286465;20;2744042;-59
2022/07/13 02:23:40;;;;;;;;;2.00;2.00;;;;;16.88;57.81;99877.69;6286869;20;2733578;-59
2022/07/13 02:26:08;;;;;;;;;4.00;3.00;;;;;16.71;58.37;99871.94;6287355;20;2748169;-59
2022/07/13 02:28:36;;;;;;;;;3.00;2.00;;;;;16.92;57.60;99874.72;6289339;20;2739973;-59
2022/07/13 02:31:04;;;;;;;;;3.00;2.00;;;;;16.73;58.16;99870.81;6289047;20;2739881;-59
2022/07/13 02:33:32;;;;;;;;;5.00;3.50;;;;;16.78;58.18;99874.03;6288701;20;2744060;-58
2022/07/13 02:35:59;;;;;;;;;4.00;3.00;;;;;16.82;57.87;99863.78;6286411;20;2735672;-58
2022/07/13 02:38:27;;;;;;;;;3.50;2.00;;;;;16.85;58.02;99867.13;6287459;20;2751424;-59
2022/07/13 02:40:55;;;;;;;;;3.00;3.00;;;;;16.65;59.01;99867.91;6288723;20;2754488;-59
2022/07/13 02:43:23;;;;;;;;;2.00;2.00;;;;;16.76;58.22;99859.72;6289701;20;2726423;-59
2022/07/13 02:45:51;;;;;;;;;3.00;3.00;;;;;16.85;58.01;99861.69;6287279;20;2744037;-59
2022/07/13 02:48:20;;;;;;;;;3.00;1.00;;;;;16.85;57.81;99858.97;6288650;20;2742300;-58
2022/07/13 02:50:48;;;;;;;;;3.00;3.00;;;;;16.88;57.65;99864.13;6286797;20;2746135;-59
2022/07/13 02:53:16;;;;;;;;;3.00;3.00;;;;;16.96;57.63;99865.34;6290169;20;2732552;-58
2022/07/13 02:55:44;;;;;;;;;3.00;3.00;;;;;17.09;56.87;99860.59;6283582;20;2742997;-58
2022/07/13 02:58:11;;;;;;;;;5.00;2.00;;;;;17.22;56.00;99861.25;6289649;20;2748200;-59
2022/07/13 03:00:39;;;;;;;;;4.50;3.00;;;;;17.16;56.43;99869.91;6287320;20;2737784;-58
2022/07/13 03:03:07;;;;;;;;;3.00;3.00;;;;;17.14;56.14;99874.63;6288062;20;2739834;-58
2022/07/13 03:05:35;;;;;;;;;3.00;3.00;;;;;17.27;55.87;99869.84;6287150;20;2752440;-58
2022/07/13 03:08:03;;;;;;;;;2.00;2.00;;;;;17.30;55.98;99866.88;6306187;20;1805584;-58
2022/07/13 03:10:31;;;;;;;;;4.00;2.00;;;;;17.29;56.00;99870.56;6320735;20;2725369;-58
2022/07/13 03:12:59;;;;;;;;;3.00;3.00;;;;;17.42;55.44;99869.50;6288714;20;2739987;-59
2022/07/13 03:15:27;;;;;;;;;3.00;3.00;;;;;17.49;54.63;99873.41;6287846;20;2733606;-59
2022/07/13 03:17:54;;;;;;;;;2.00;2.00;;;;;17.55;54.64;99883.72;6289455;20;2727505;-59
2022/07/13 03:20:22;;;;;;;;;3.00;3.00;;;;;17.58;54.88;99871.72;6288505;20;2735748;-59
2022/07/13 03:22:51;;;;;;;;;2.00;2.00;;;;;17.56;54.94;99874.56;6286889;20;2726312;-59
2022/07/13 03:25:19;;;;;;;;;3.50;3.00;;;;;17.53;55.53;99867.56;6288188;20;2744522;-58
2022/07/13 03:27:48;;;;;;;;;3.00;3.00;;;;;17.60;54.28;99873.31;6284435;20;2732579;-59
2022/07/13 03:30:16;;;;;;;;;3.00;3.00;;;;;17.67;54.51;99877.22;6286280;20;2736737;-59
2022/07/13 03:32:44;;;;;;;;;2.00;2.00;;;;;17.71;54.13;99877.81;6290768;20;2725334;-59
2022/07/13 03:35:11;;;;;;;;;3.50;3.50;;;;;17.75;54.42;99874.69;6286203;20;2750240;-58
2022/07/13 03:37:39;;;;;;;;;2.50;2.50;;;;;17.71;54.76;99872.38;6290174;20;2721166;-58
2022/07/13 03:40:08;;;;;;;;;3.00;3.00;;;;;17.64;54.82;99877.50;6286975;20;2737938;-58
2022/07/13 03:42:39;;;;;;;;;3.00;3.00;;;;;17.72;54.78;99869.53;6284777;20;2739931;-59
2022/07/13 03:45:08;;;;;;;;;3.00;3.00;;;;;17.70;54.71;99878.81;6285436;20;2740128;-58
2022/07/13 03:47:36;;;;;;;;;6.00;4.00;;;;;17.66;55.02;99875.47;6286633;20;2742966;-59
2022/07/13 03:50:04;;;;;;;;;3.00;3.00;;;;;17.71;55.39;99877.81;6283824;20;2750292;-59
2022/07/13 03:52:32;;;;;;;;;9.00;4.00;;;;;17.70;55.53;99887.81;6284309;20;2749283;-58
2022/07/13 03:55:00;;;;;;;;;1.00;1.00;;;;;17.75;54.64;99880.13;6288390;20;2734673;-59
2022/07/13 03:57:27;;;;;;;;;3.00;3.00;;;;;17.68;55.58;99878.06;6282335;20;2756534;-59
2022/07/13 03:59:55;;;;;;;;;2.50;2.50;;;;;17.76;54.98;99879.09;6288049;20;2735923;-59
2022/07/13 04:02:24;;;;;;;;;3.00;3.00;;;;;17.65;55.57;99876.50;6287096;20;2739843;-58
2022/07/13 04:04:52;;;;;;;;;5.00;2.50;;;;;17.87;54.78;99880.06;6286700;20;2753381;-58
2022/07/13 04:07:20;;;;;;;;;3.00;3.00;;;;;17.78;55.67;99879.00;6286258;20;2744015;-59
2022/07/13 04:09:48;;;;;;;;;2.50;2.00;;;;;17.90;55.05;99877.91;6304020;20;1800430;-58
2022/07/13 04:12:22;;;;;;;;;4.00;3.00;;;;;17.98;55.12;99882.66;6317833;20;2744119;-58
2022/07/13 04:14:51;;;;;;;;;4.25;3.25;;;;;18.00;55.20;99886.09;6307432;20;1794192;-58
2022/07/13 04:17:19;;;;;;;;;2.00;2.00;;;;;18.17;54.74;99885.47;6318714;20;2745456;-58
2022/07/13 04:19:46;;;;;;;;;3.00;3.00;;;;;18.24;54.39;99884.91;6292860;20;2744014;-58
2022/07/13 04:22:14;;;;;;;;;2.50;2.50;;;;;18.26;54.49;99877.47;6289242;20;2746248;-59
2022/07/13 04:24:42;;;;;;;;;3.00;3.00;;;;;18.18;54.91;99876.31;6290450;20;2752339;-58
2022/07/13 04:27:10;;;;;;;;;3.00;3.00;;;;;18.11;55.21;99874.28;6291370;20;2729650;-58
2022/07/13 04:29:37;;;;;;;;;21.00;9.00;;;;;18.79;53.66;99872.56;6289266;20;2802324;-57
2022/07/13 04:32:06;;;;;;;;;6.00;5.00;;;;;18.72;53.44;99878.69;6289830;20;2741400;-58
2022/07/13 04:34:34;;;;;;;;;4.00;4.00;;;;;18.56;53.94;99879.25;6290728;20;2741072;-58
2022/07/13 04:37:01;;;;;;;;;4.00;3.00;;;;;18.64;53.85;99880.28;6289519;20;2750249;-58
2022/07/13 04:39:30;;;;;;;;;5.50;4.00;;;;;18.72;53.60;99878.69;6286320;20;2752414;-58
2022/07/13 04:41:59;;;;;;;;;4.00;3.00;;;;;18.72;53.47;99885.00;6289617;20;2744005;-58
2022/07/13 04:44:27;;;;;;;;;3.00;3.00;;;;;18.80;53.17;99884.31;6291494;20;2744070;-59
2022/07/13 04:46:56;;;;;;;;;3.50;3.00;;;;;18.88;52.98;99880.88;6304685;20;1789699;-58
2022/07/13 04:49:23;;;;;;;;;4.00;4.00;;;;;18.95;52.95;99882.88;6320433;20;2745042;-58
2022/07/13 04:51:51;;;;;;;;;3.50;3.50;;;;;18.89;53.40;99890.78;6291701;20;2756550;-58
2022/07/13 04:54:21;;;;;;;;;3.00;3.00;;;;;19.15;52.85;99893.78;6291339;20;2746098;-59
2022/07/13 04:56:49;;;;;;;;;3.00;3.00;;;;;19.14;53.12;99892.03;6288000;20;2747567;-59
2022/07/13 04:59:16;;;;;;;;;2.50;2.50;;;;;19.07;53.24;99889.06;6292931;20;2728383;-57
2022/07/13 05:01:44;;;;;;;;;6.00;4.00;;;;;19.47;52.22;99894.28;6289957;20;2744582;-58
2022/07/13 05:04:12;;;;;;;;;3.00;3.00;;;;;19.59;52.29;99894.09;6290482;20;2752444;-59
2022/07/13 05:06:40;;;;;;;;;2.00;2.00;;;;;19.60;52.43;99901.28;6289119;20;2723245;-59
2022/07/13 05:09:08;;;;;;;;;3.00;3.00;;;;;19.69;51.49;99900.44;6290444;20;2752346;-59
2022/07/13 05:11:37;;;;;;;;;1.50;0.00;;;;;19.98;51.05;99897.59;6305167;20;1794096;-58
2022/07/13 05:14:04;;;;;;;;;3.50;3.50;;;;;19.92;51.34;99901.78;6319531;20;2752362;-59
2022/07/13 05:16:32;;;;;;;;;3.00;2.00;;;;;20.20;50.16;99899.09;6288825;20;2720049;-58
2022/07/13 05:19:00;;;;;;;;;3.50;3.50;;;;;20.38;49.32;99904.59;6287769;20;2748230;-58
2022/07/13 05:21:28;;;;;;;;;3.00;3.00;;;;;20.64;48.96;99902.00;6294763;20;2726373;-59
2022/07/13 05:23:57;;;;;;;;;2.33;2.33;;;;;20.91;47.94;99903.00;6292951;20;2737806;-59
2022/07/13 05:26:25;;;;;;;;;2.00;2.00;;;;;21.27;47.01;99910.16;6318125;20;2744001;-59
2022/07/13 05:28:54;;;;;;;;;3.00;3.00;;;;;21.35;46.75;99911.22;6320337;20;2729423;-58
2022/07/13 05:31:22;;;;;;;;;2.00;2.00;;;;;21.74;46.05;99914.44;6318320;20;2741917;-58
2022/07/13 05:33:51;;;;;;;;;4.00;2.00;;;;;21.81;45.17;99906.47;6321820;20;2730486;-58
2022/07/13 05:36:19;;;;;;;;;2.67;2.67;;;;;21.87;44.78;99911.28;6316078;20;2750250;-58
2022/07/13 05:38:48;;;;;;;;;2.00;2.00;;;;;22.07;44.71;99915.50;6320738;20;2742076;-58
2022/07/13 05:41:16;;;;;;;;;3.00;3.00;;;;;22.30;43.28;99914.94;6319771;20;2739893;-55
2022/07/13 05:43:46;;;;;;;;;4.67;2.33;;;;;22.42;42.86;99910.03;6316860;20;2748291;-57
2022/07/13 05:46:14;;;;;;;;;1.67;1.67;;;;;22.71;43.14;99909.63;6319150;20;2741911;-58
2022/07/13 05:48:43;;;;;;;;;2.00;2.00;;;;;22.52;43.01;99906.13;6318140;20;2744011;-57
2022/07/13 05:51:11;;;;;;;;;2.00;2.00;;;;;22.81;42.22;99910.31;6320303;20;2744006;-58
2022/07/13 05:54:01;;;;;;;;;4.20;3.00;;;;;22.89;41.79;99909.47;6346222;20;2743997;-58
2022/07/13 05:56:50;;;;;;;;;4.20;2.60;;;;;23.00;41.75;99910.03;6341937;20;2745062;-58
2022/07/13 05:59:20;;;;;;;;;2.40;2.00;;;;;23.23;41.93;99909.38;6348723;20;2744011;-59
2022/07/13 06:01:49;;;;;;;;;3.33;2.00;;;;;23.41;41.32;99912.81;6326073;20;2725335;-59
2022/07/13 06:04:18;;;;;;;;;2.00;2.00;;;;;23.64;41.14;99912.06;6348949;20;2724335;-58
2022/07/13 06:06:48;;;;;;;;;2.00;2.00;;;;;23.54;41.33;99916.88;6323915;20;2732131;-58
2022/07/13 06:09:17;;;;;;;;;3.00;3.00;;;;;23.53;41.75;99915.19;6346439;20;2744573;-58
2022/07/13 06:11:47;;;;;;;;;2.60;2.60;;;;;23.94;40.86;99907.78;6345214;20;2734062;-58
2022/07/13 06:14:16;;;;;;;;;3.20;2.00;;;;;24.21;40.53;99917.47;6344754;20;2744045;-59
2022/07/13 06:16:46;;;;;;;;;1.60;1.40;;;;;24.16;40.18;99914.41;6346175;20;2741960;-58
2022/07/13 06:19:15;;;;;;;;;3.60;1.60;;;;;24.23;39.61;99915.41;6345716;20;2750282;-58
2022/07/13 06:21:44;;;;;;;;;2.00;2.00;;;;;24.22;40.08;99907.34;6316093;20;1829459;-60
2022/07/13 06:24:13;;;;;;;;;2.00;2.00;;;;;24.42;39.43;99905.03;6342718;20;2737749;-58
2022/07/13 06:26:43;;;;;;;;;1.40;1.40;;;;;24.41;40.26;99911.53;6345803;20;2741967;-58
2022/07/13 06:29:12;;;;;;;;;2.00;2.00;;;;;24.98;38.65;99903.00;6344165;20;2746082;-59
2022/07/13 06:31:41;;;;;;;;;3.00;3.00;;;;;24.69;38.86;99903.72;6324929;20;2744131;-58
2022/07/13 06:34:10;;;;;;;;;3.00;2.00;;;;;25.08;38.76;99903.63;6347761;20;2732548;-59
2022/07/13 06:36:43;;;;;;;;;2.20;2.20;;;;;25.42;37.86;99918.84;6346190;20;2750254;-59
2022/07/13 06:39:11;;;;;;;;;3.00;2.00;;;;;24.96;37.94;99907.81;6293196;20;2744103;-59
2022/07/13 06:41:41;;;;;;;;;2.40;1.00;;;;;25.80;36.99;99916.09;6347913;20;2731564;-58
2022/07/13 06:44:11;;;;;;;;;2.00;2.00;;;;;25.88;37.18;99913.28;6343738;20;2735700;-59
2022/07/13 06:46:40;;;;;;;;;1.80;1.80;;;;;26.02;36.66;99917.94;6343892;20;2744094;-58
2022/07/13 06:49:09;;;;;;;;;4.00;2.00;;;;;26.43;36.54;99911.94;6292780;20;2753494;-55
2022/07/13 06:51:38;;;;;;;;;5.00;2.00;;;;;26.66;36.15;99913.75;6343559;20;2739856;-59
2022/07/13 06:54:11;;;;;;;;;1.00;1.00;;;;;26.21;35.46;99923.94;6347510;20;2727352;-59
2022/07/13 06:56:40;;;;;;;;;2.00;2.00;;;;;26.68;34.95;99917.16;6341828;20;2743984;-58
2022/07/13 06:59:11;;;;;;;;;4.00;2.00;;;;;26.75;34.77;99920.00;6317283;20;2746091;-58
2022/07/13 07:01:40;;;;;;;;;2.80;2.00;;;;;27.26;34.96;99918.03;6313364;20;2744079;-58
2022/07/13 07:04:10;;;;;;;;;3.00;2.40;;;;;26.87;34.67;99916.53;6313829;20;2741991;-59
2022/07/13 07:06:39;;;;;;;;;2.60;2.00;;;;;26.24;35.19;99918.03;6344286;20;2741911;-58
2022/07/13 07:09:09;;;;;;;;;2.40;2.00;;;;;26.48;34.96;99909.47;6316324;20;2744033;-59
2022/07/13 07:11:38;;;;;;;;;2.00;2.00;;;;;27.57;34.47;99914.09;6314091;20;2744527;-59
2022/07/13 07:14:08;;;;;;;;;2.20;1.80;;;;;28.06;32.86;99929.75;6316547;20;2746160;-59
2022/07/13 07:16:38;;;;;;;;;3.00;3.00;;;;;27.83;33.72;99923.63;6312142;20;2735705;-59
2022/07/13 07:19:08;;;;;;;;;2.00;2.00;;;;;27.44;33.84;99913.97;6344941;20;2739891;-61
2022/07/13 07:21:55;;;;;;;;;1.00;1.00;;;;;27.92;34.07;99923.28;6346196;20;2726303;-60
2022/07/13 07:24:25;;;;;;;;;1.40;1.40;;;;;27.34;34.01;99917.91;6344017;20;2741941;-60
2022/07/13 07:26:55;;;;;;;;;2.80;1.00;;;;;26.74;34.47;99927.41;6344653;20;2734631;-56
2022/07/13 07:29:24;;;;;;;;;1.00;1.00;;;;;27.28;34.02;99929.72;6343615;20;2733637;-61
2022/07/13 07:31:54;;;;;;;;;2.00;2.00;;;;;27.40;33.21;99934.72;6346282;20;2746073;-60
2022/07/13 07:34:33;;;;;;;;;1.20;1.20;;;;;26.59;34.52;99916.41;6314354;20;2728433;-55
2022/07/13 07:37:01;;;;;;;;;2.00;2.00;;;;;27.10;33.64;99932.06;6324461;20;2756493;-60
2022/07/13 07:39:31;;;;;;;;;6.20;2.40;;;;;27.47;33.13;99930.13;6342674;20;2756497;-61
2022/07/13 07:42:00;;;;;;;;;2.60;1.20;;;;;27.24;33.21;99919.28;6312797;20;2739837;-58
2022/07/13 07:44:30;;;;;;;;;2.00;2.00;;;;;27.11;33.13;99918.06;6345136;20;2746097;-59
2022/07/13 07:47:00;;;;;;;;;3.20;1.60;;;;;27.32;32.86;99922.75;6311878;20;2752381;-59
2022/07/13 07:49:29;;;;;;;;;1.20;1.00;;;;;27.02;33.74;99915.66;6314548;20;2738784;-59
2022/07/13 07:51:59;;;;;;;;;1.40;1.40;;;;;27.70;33.02;99914.19;6344698;20;2733652;-59
2022/07/13 07:54:49;;;;;;;;;2.20;1.80;;;;;27.45;31.73;99912.91;6345389;20;2731533;-60
2022/07/13 07:57:23;;;;;;;;;2.40;2.40;;;;;27.22;33.27;99916.72;6311434;20;2750367;-60
2022/07/13 07:59:53;;;;;;;;;2.00;2.00;;;;;27.72;31.98;99916.72;6312946;20;2741947;-59
2022/07/13 08:02:22;;;;;;;;;1.00;1.00;;;;;27.64;32.24;99926.00;6346411;20;2739960;-59
2022/07/13 08:04:52;;;;;;;;;2.00;2.00;;;;;27.36;32.41;99907.53;6311518;20;2748163;-58
2022/07/13 08:07:21;;;;;;;;;2.00;2.00;;;;;27.36;31.81;99913.06;6311061;20;2735800;-60
2022/07/13 08:09:51;;;;;;;;;1.60;1.00;;;;;27.40;32.10;99924.53;6313261;20;2732609;-59
2022/07/13 08:12:20;;;;;;;;;1.80;0.60;;;;;27.61;30.94;99917.28;6346056;20;2735765;-58
2022/07/13 08:14:50;;;;;;;;;5.60;1.40;;;;;27.63;31.10;99924.31;6342399;20;2741954;-58
2022/07/13 08:17:19;;;;;;;;;0.00;0.00;;;;;28.10;30.07;99914.50;6310045;20;2726470;-60
2022/07/13 08:19:48;;;;;;;;;1.20;1.20;;;;;28.42;29.78;99931.44;6343664;20;2723344;-59
2022/07/13 08:22:18;;;;;;;;;2.00;2.00;;;;;28.31;30.50;99915.47;6343261;20;2744154;-60
2022/07/13 08:24:47;;;;;;;;;2.00;2.00;;;;;27.76;30.66;99923.56;6311287;20;2752398;-60
2022/07/13 08:27:17;;;;;;;;;2.00;2.00;;;;;28.23;30.67;99914.56;6309427;20;2744110;-59
2022/07/13 08:29:47;;;;;;;;;1.40;1.00;;;;;28.09;31.10;99917.44;6312782;20;2724272;-59
2022/07/13 08:32:16;;;;;;;;;1.60;1.40;;;;;28.16;30.20;99913.66;6343359;20;2744076;-59
2022/07/13 08:40:22;;;;;;;;;1.00;1.00;;;;;28.75;30.51;99911.41;6310414;20;2735685;-61
2022/07/13 08:42:51;;;;;;;;;2.20;1.20;;;;;28.15;30.12;99903.69;6343579;20;2726343;-55
2022/07/13 08:45:24;;;;;;;;;1.00;1.00;;;;;28.60;30.28;99898.63;6339938;20;2733585;-59
2022/07/13 08:47:53;;;;;;;;;4.60;3.00;;;;;28.74;30.09;99898.66;6343715;20;2728371;-60
2022/07/13 08:50:24;;;;;;;;;0.80;0.80;;;;;28.41;29.71;99899.34;6342044;20;2728375;-58
2022/07/13 08:52:54;;;;;;;;;1.00;0.80;;;;;28.81;28.27;99894.03;6343066;20;2737825;-59
2022/07/13 08:55:25;;;;;;;;;1.00;1.00;;;;;28.77;29.83;99895.47;6310620;20;2739815;-55
2022/07/13 08:57:55;;;;;;;;;2.20;0.00;;;;;28.99;28.71;99905.34;6312155;20;2725276;-60
2022/07/13 09:00:25;;;;;;;;;2.80;2.80;;;;;29.70;28.41;99898.41;6341834;20;2756497;-60
2022/07/13 09:02:55;;;;;;;;;2.20;0.80;;;;;30.42;28.01;99901.28;6313091;20;2747123;-59
2022/07/13 09:05:27;;;;;;;;;0.40;0.40;;;;;29.53;28.70;99893.28;6308464;20;2735652;-59
2022/07/13 09:08:22;;;;;;;;;4.00;0.67;;;;;29.09;29.55;99899.41;6294435;20;2746091;-60
2022/07/13 09:11:01;;;;;;;;;3.80;2.00;;;;;29.47;29.16;99893.31;6342919;20;2746206;-58
2022/07/13 09:13:45;;;;;;;;;1.40;1.40;;;;;29.14;29.04;99887.72;6310047;20;2744029;-60
2022/07/13 09:16:24;;;;;;;;;1.00;1.00;;;;;29.39;28.76;99888.81;6309908;20;2728373;-60
2022/07/13 09:19:04;;;;;;;;;2.20;2.00;;;;;29.61;28.47;99888.59;6345303;20;2744026;-59
2022/07/13 09:21:34;;;;;;;;;4.80;1.40;;;;;29.03;28.50;99889.19;6311542;20;2756574;-58
2022/07/13 09:24:04;;;;;;;;;1.80;0.60;;;;;28.71;28.85;99893.56;6312337;20;2735739;-59
2022/07/13 09:26:46;;;;;;;;;3.80;1.00;;;;;29.25;28.47;99879.69;6342905;20;2727376;-59
2022/07/13 09:29:15;;;;;;;;;5.33;1.00;;;;;28.75;28.98;99873.56;6315325;20;2744015;-60
2022/07/13 09:31:56;;;;;;;;;2.20;0.80;;;;;29.98;28.75;99884.31;6342810;20;2732553;-61
2022/07/13 09:34:51;;;;;;;;;2.20;1.40;;;;;29.70;27.55;99881.81;6340917;20;2737768;-59
2022/07/13 09:37:22;;;;;;;;;1.40;1.20;;;;;29.71;27.92;99876.06;6309013;20;2748621;-62
2022/07/13 09:40:08;;;;;;;;;1.00;1.00;;;;;29.67;27.90;99873.94;6313088;20;2735683;-60
2022/07/13 09:42:42;;;;;;;;;0.60;0.60;;;;;29.10;28.42;99877.09;6343971;20;2731558;-60
2022/07/13 09:48:13;;;;;;;;;2.00;2.00;;;;;29.65;27.91;99881.59;6313187;20;2741922;-60
2022/07/13 09:50:43;;;;;;;;;1.00;1.00;;;;;29.66;27.94;99897.16;6315602;20;2723176;-59
2022/07/13 09:53:34;;;;;;;;;0.60;0.60;;;;;29.66;28.22;99886.94;6310501;20;2706644;-59
2022/07/13 09:56:06;;;;;;;;;1.40;1.00;;;;;29.68;27.91;99893.09;6342083;20;2741930;-57
2022/07/13 09:58:37;;;;;;;;;3.00;1.00;;;;;29.27;28.24;99896.03;6310399;20;2737869;-60
2022/07/13 10:01:07;;;;;;;;;2.40;1.40;;;;;29.45;28.17;99878.81;6311746;20;2748163;-62
2022/07/13 10:03:38;;;;;;;;;5.40;2.40;;;;;29.80;27.30;99897.97;6308405;20;2738795;-59
2022/07/13 10:06:15;;;;;;;;;1.00;1.00;;;;;29.30;28.09;99876.25;6305898;20;2739873;-61
2022/07/13 10:08:44;;;;;;;;;1.80;1.80;;;;;30.04;27.94;99883.44;6307129;20;2744159;-58
2022/07/13 10:11:14;;;;;;;;;4.00;1.00;;;;;29.40;28.00;99875.84;6306885;20;2729456;-58
2022/07/13 10:13:44;;;;;;;;;2.40;2.00;;;;;29.48;27.43;99879.25;6342012;20;2744012;-59
2022/07/13 10:16:14;;;;;;;;;2.00;0.40;;;;;29.37;27.85;99870.75;6310088;20;2739864;-59
2022/07/13 10:18:45;;;;;;;;;1.80;1.80;;;;;29.01;27.36;99878.31;6310191;20;2737874;-58
2022/07/13 10:22:01;;;;;;;;;2.00;2.00;;;;;29.79;27.49;99872.22;6306933;20;2750236;-55
2022/07/13 10:24:30;;;;;;;;;2.00;1.00;;;;;29.52;26.98;99877.75;6306694;20;1861763;-59
2022/07/13 10:27:28;;;;;;;;;1.00;1.00;;;;;29.36;27.38;99874.56;6310697;20;2744036;-58
2022/07/13 10:30:04;;;;;;;;;5.67;2.33;;;;;29.66;27.57;99862.03;6283134;20;2750359;-57
2022/07/13 10:32:42;;;;;;;;;1.00;1.00;;;;;30.52;26.36;99860.13;6341560;20;2735702;-57
2022/07/13 10:35:20;;;;;;;;;0.20;0.20;;;;;30.52;26.34;99854.56;6308640;20;2735679;-56
2022/07/13 10:38:01;;;;;;;;;0.80;0.80;;;;;29.75;27.42;99859.88;6309722;20;2740675;-56
2022/07/13 10:40:34;;;;;;;;;3.00;1.40;;;;;29.78;27.14;99867.78;6315479;20;2731502;-52
2022/07/13 10:43:04;;;;;;;;;1.00;1.00;;;;;29.56;27.03;99857.97;6315292;20;2737766;-53
2022/07/13 10:45:39;;;;;;;;;2.67;1.67;;;;;30.29;26.57;99863.41;6301382;20;2741926;-55
2022/07/13 10:48:34;;;;;;;;;1.00;1.00;;;;;30.10;26.38;99865.13;6346081;20;2735841;-55
2022/07/13 10:51:04;;;;;;;;;2.00;2.00;;;;;29.93;27.13;99864.75;6314513;20;2744044;-54
2022/07/13 10:53:43;;;;;;;;;0.20;0.20;;;;;30.17;26.88;99855.72;6310270;20;2737810;-53
2022/07/13 10:56:21;;;;;;;;;1.80;0.20;;;;;29.74;26.16;99866.47;6313637;20;2735676;-55
2022/07/13 10:58:51;;;;;;;;;1.60;0.00;;;;;30.09;26.40;99858.72;6311804;20;2727364;-60
2022/07/13 11:01:36;;;;;;;;;1.60;1.60;;;;;29.93;26.79;99864.75;6347898;20;2745632;-59
2022/07/13 11:04:08;;;;;;;;;1.00;1.00;;;;;29.88;26.96;99857.06;6314073;20;1907632;-58
2022/07/13 11:06:39;;;;;;;;;2.00;0.80;;;;;30.53;26.72;99859.03;6341114;20;2744066;-60
2022/07/13 11:09:20;;;;;;;;;4.60;3.00;;;;;29.38;27.75;99862.22;6314549;20;2748202;-59
2022/07/13 11:11:54;;;;;;;;;1.20;1.20;;;;;29.98;27.41;99860.25;6313999;20;2728419;-60
2022/07/13 11:14:42;;;;;;;;;1.60;1.60;;;;;29.85;27.73;99857.50;6345848;20;2756500;-59
2022/07/13 11:17:19;;;;;;;;;2.00;2.00;;;;;29.92;27.74;99860.28;6311580;20;2731539;-60
2022/07/13 11:20:10;;;;;;;;;1.20;1.20;;;;;29.90;27.62;99854.09;6314086;20;2742148;-61
2022/07/13 11:26:19;;;;;;;;;0.00;0.00;;;;;30.85;27.92;99846.06;6310835;20;2630478;-60
2022/07/13 11:29:43;;;;;;;;;1.60;1.60;;;;;30.31;26.71;99833.56;6342785;20;2742004;-60
2022/07/13 11:32:13;;;;;;;;;2.50;1.50;;;;;30.10;27.07;99837.44;6311507;20;2757533;-59
2022/07/13 11:34:43;;;;;;;;;1.00;1.00;;;;;30.15;27.24;99830.19;6345162;20;2739827;-59
2022/07/13 11:37:13;;;;;;;;;2.20;2.20;;;;;30.71;27.46;99841.66;6310732;20;2739947;-60
2022/07/13 11:39:46;;;;;;;;;2.40;2.40;;;;;31.05;26.03;99834.84;6313025;20;2738785;-60
2022/07/13 11:42:23;;;;;;;;;2.20;1.60;;;;;31.32;26.82;99820.78;6313374;20;2747117;-59
2022/07/13 11:44:53;;;;;;;;;1.00;0.00;;;;;31.54;25.99;99829.56;6310609;20;2738800;-60
2022/07/13 11:47:21;;;;;;;;;2.00;2.00;;;;;31.06;26.22;99829.06;6288384;20;2737782;-59